createdAt,value
2023-01-02T00:00:23.575Z,2.30
2023-01-02T00:02:50.748Z,2.40
2023-01-02T00:05:18.030Z,2.10
2023-01-02T00:07:44.974Z,1.50
2023-01-02T00:10:11.915Z,1.90
2023-01-02T00:12:38.815Z,2.20
2023-01-02T00:15:06.474Z,2.30
2023-01-02T00:17:33.438Z,2.40
2023-01-02T00:20:00.830Z,2.40
2023-01-02T00:22:27.873Z,2.50
2023-01-02T00:24:54.852Z,2.60
2023-01-02T00:27:21.709Z,1.70
2023-01-02T00:29:48.592Z,1.80
2023-01-02T00:32:15.655Z,2.30
2023-01-02T00:34:42.594Z,2.40
2023-01-02T00:37:09.551Z,1.90
2023-01-02T00:39:36.482Z,2.50
2023-01-02T00:42:04.563Z,2.70
2023-01-02T00:44:31.512Z,2.50
2023-01-02T00:46:58.653Z,2.30
2023-01-02T00:49:26.350Z,1.70
2023-01-02T00:51:53.256Z,2.20
2023-01-02T00:54:20.227Z,2.10
2023-01-02T00:56:47.253Z,2.30
2023-01-02T00:59:14.235Z,2.60
2023-01-02T01:01:41.417Z,2.20
2023-01-02T01:04:08.908Z,2.30
2023-01-02T01:06:35.952Z,1.70
2023-01-02T01:09:03.012Z,1.50
2023-01-02T01:11:30.075Z,2.30
2023-01-02T01:13:57.707Z,1.80
2023-01-02T01:16:25.902Z,2.40
2023-01-02T01:18:56.819Z,2.70
2023-01-02T01:21:23.763Z,2.60
2023-01-02T01:23:52.326Z,2.30
2023-01-02T01:26:19.404Z,1.70
2023-01-02T01:28:46.439Z,1.50
2023-01-02T01:31:15.092Z,2.40
2023-01-02T01:33:42.308Z,1.90
2023-01-02T01:36:11.271Z,1.80
2023-01-02T01:38:38.251Z,3.10
2023-01-02T01:41:05.817Z,2.60
2023-01-02T01:43:35.993Z,2.70
2023-01-02T01:46:03.022Z,1.50
2023-01-02T01:48:30.196Z,1.90
2023-01-02T01:50:57.254Z,2.10
2023-01-02T01:53:24.919Z,2.20
2023-01-02T01:55:53.794Z,2.30
2023-01-02T01:58:22.911Z,2.40
2023-01-02T02:00:49.867Z,2.70
2023-01-02T02:03:20.539Z,2.80
2023-01-02T02:05:47.433Z,1.70
2023-01-02T02:08:27.191Z,2.00
2023-01-02T02:10:55.246Z,2.30
2023-01-02T02:13:22.179Z,2.30
2023-01-02T02:16:16.826Z,2.40
2023-01-02T02:19:02.953Z,2.60
2023-01-02T02:21:48.807Z,2.70
2023-01-02T02:24:31.088Z,2.40
2023-01-02T02:27:23.343Z,2.10
2023-01-02T02:30:19.839Z,1.50
2023-01-02T02:32:56.090Z,2.10
2023-01-02T02:35:41.872Z,2.60
2023-01-02T02:38:48.447Z,2.10
2023-01-02T02:41:24.585Z,2.20
2023-01-02T02:43:56.062Z,2.50
2023-01-02T02:46:28.470Z,1.70
2023-01-02T02:49:04.507Z,1.60
2023-01-02T02:51:43.640Z,2.20
2023-01-02T02:54:27.568Z,2.30
2023-01-02T02:56:54.611Z,2.70
2023-01-02T02:59:21.680Z,2.90
2023-01-02T03:01:48.832Z,2.40
2023-01-02T03:04:18.575Z,2.50
2023-01-02T03:07:10.763Z,1.80
2023-01-02T03:09:57.385Z,1.90
2023-01-02T03:12:24.286Z,2.20
2023-01-02T03:15:17.577Z,2.80
2023-01-02T03:18:03.696Z,2.50
2023-01-02T03:20:38.463Z,2.40
2023-01-02T03:23:07.482Z,2.50
2023-01-02T03:25:34.963Z,1.70
2023-01-02T03:28:01.881Z,2.50
2023-01-02T03:30:28.813Z,2.40
2023-01-02T03:33:03.079Z,2.50
2023-01-02T03:35:34.528Z,2.60
2023-01-02T03:38:01.430Z,2.50
2023-01-02T03:40:31.378Z,2.80
2023-01-02T03:43:03.326Z,2.30
2023-01-02T03:45:35.173Z,2.20
2023-01-02T03:48:21.996Z,3.00
2023-01-02T03:50:51.601Z,2.80
2023-01-02T03:53:18.846Z,3.30
2023-01-02T03:55:59.938Z,3.10
2023-01-02T03:59:15.509Z,4.20
2023-01-02T04:01:48.337Z,3.20
2023-01-02T04:04:33.996Z,3.60
2023-01-02T04:07:02.248Z,4.40
2023-01-02T04:09:30.523Z,4.30
2023-01-02T04:12:01.139Z,4.20
2023-01-02T04:14:31.241Z,4.50
2023-01-02T04:16:59.073Z,4.30
2023-01-02T04:19:32.943Z,2.40
2023-01-02T04:22:02.142Z,2.60
2023-01-02T04:24:33.968Z,2.70
2023-01-02T04:27:04.588Z,3.80
2023-01-02T04:29:31.589Z,3.80
2023-01-02T04:32:03.238Z,3.40
2023-01-02T04:34:31.729Z,3.50
2023-01-02T04:36:59.280Z,2.60
2023-01-02T04:39:26.591Z,3.10
2023-01-02T04:41:53.582Z,3.60
2023-01-02T04:44:20.582Z,3.70
2023-01-02T04:46:47.578Z,3.70
2023-01-02T04:49:14.721Z,5.50
2023-01-02T04:51:41.693Z,4.80
2023-01-02T04:54:13.528Z,3.30
2023-01-02T04:56:40.475Z,3.50
2023-01-02T04:59:07.348Z,3.80
2023-01-02T05:01:34.316Z,4.20
2023-01-02T05:04:01.512Z,4.80
2023-01-02T05:06:28.551Z,4.30
2023-01-02T05:08:55.502Z,2.80
2023-01-02T05:11:22.448Z,2.70
2023-01-02T05:13:49.476Z,3.90
2023-01-02T05:16:16.692Z,2.90
2023-01-02T05:18:43.800Z,3.60
2023-01-02T05:21:31.033Z,2.00
2023-01-02T05:23:59.605Z,2.80
2023-01-02T05:26:26.644Z,3.20
2023-01-02T05:28:54.402Z,3.90
2023-01-02T05:31:21.489Z,3.90
2023-01-02T05:33:55.272Z,3.00
2023-01-02T05:36:23.027Z,3.10
2023-01-02T05:38:50.177Z,3.80
2023-01-02T05:41:17.422Z,3.70
2023-01-02T05:43:44.353Z,3.80
2023-01-02T05:46:13.268Z,3.70
2023-01-02T05:48:40.734Z,2.90
2023-01-02T05:51:09.604Z,3.60
2023-01-02T05:53:36.862Z,3.90
2023-01-02T05:56:11.901Z,3.90
2023-01-02T05:58:40.161Z,3.20
2023-01-02T06:01:09.079Z,3.00
2023-01-02T06:03:36.248Z,2.80
2023-01-02T06:06:10.690Z,1.90
2023-01-02T06:08:38.206Z,4.20
2023-01-02T06:11:05.744Z,3.50
2023-01-02T06:13:33.817Z,3.20
2023-01-02T06:16:01.198Z,3.10
2023-01-02T06:18:28.932Z,2.50
2023-01-02T06:21:03.123Z,3.30
2023-01-02T06:23:30.314Z,3.60
2023-01-02T06:26:06.158Z,2.10
2023-01-02T06:28:33.295Z,3.40
2023-01-02T06:31:11.901Z,2.90
2023-01-02T06:33:38.964Z,2.70
2023-01-02T06:36:07.040Z,2.70
2023-01-02T06:38:34.624Z,2.80
2023-01-02T06:41:02.530Z,2.40
2023-01-02T06:43:29.917Z,2.80
2023-01-02T06:45:58.749Z,3.20
2023-01-02T06:48:25.861Z,2.90
2023-01-02T06:50:52.900Z,3.10
2023-01-02T06:53:19.848Z,3.00
2023-01-02T06:55:51.846Z,2.50
2023-01-02T06:58:19.785Z,2.50
2023-01-02T07:00:47.265Z,2.60
2023-01-02T07:03:14.525Z,3.00
2023-01-02T07:05:41.749Z,2.90
2023-01-02T07:08:09.105Z,2.60
2023-01-02T07:10:36.256Z,2.90
2023-01-02T07:13:03.397Z,1.70
2023-01-02T07:15:30.451Z,1.80
2023-01-02T07:17:57.381Z,2.70
2023-01-02T07:20:24.432Z,2.60
2023-01-02T07:22:54.870Z,2.60
2023-01-02T07:25:22.011Z,2.30
2023-01-02T07:27:48.926Z,2.70
2023-01-02T07:30:15.999Z,3.00
2023-01-02T07:32:43.683Z,3.00
2023-01-02T07:35:11.200Z,2.70
2023-01-02T07:37:38.391Z,3.50
2023-01-02T07:40:06.271Z,5.00
2023-01-02T07:42:33.299Z,5.70
2023-01-02T07:45:00.200Z,7.90
2023-01-02T07:47:27.183Z,4.70
2023-01-02T07:49:54.286Z,3.80
2023-01-02T07:52:21.300Z,2.80
2023-01-02T07:54:48.321Z,3.10
2023-01-02T07:57:15.216Z,3.50
2023-01-02T07:59:45.249Z,2.90
2023-01-02T08:02:12.473Z,2.10
2023-01-02T08:04:39.493Z,1.90
2023-01-02T08:07:06.524Z,2.80
2023-01-02T08:09:33.915Z,2.80
2023-01-02T08:12:00.822Z,2.40
2023-01-02T08:14:27.977Z,3.30
2023-01-02T08:16:54.984Z,3.00
2023-01-02T08:19:22.066Z,3.40
2023-01-02T08:21:49.070Z,3.10
2023-01-02T08:24:15.957Z,3.50
2023-01-02T08:26:43.003Z,3.60
2023-01-02T08:29:10.055Z,2.90
2023-01-02T08:31:43.379Z,3.30
2023-01-02T08:34:14.731Z,3.10
2023-01-02T08:36:42.256Z,3.10
2023-01-02T08:39:09.401Z,3.60
2023-01-02T08:41:37.962Z,3.50
2023-01-02T08:44:05.233Z,3.60
2023-01-02T08:46:38.419Z,4.10
2023-01-02T08:49:09.367Z,3.90
2023-01-02T08:51:36.421Z,4.30
2023-01-02T08:54:03.444Z,4.60
2023-01-02T08:56:31.785Z,3.90
2023-01-02T08:59:02.460Z,3.40
2023-01-02T09:01:30.897Z,3.80
2023-01-02T09:03:58.345Z,3.60
2023-01-02T09:06:27.297Z,3.00
2023-01-02T09:08:55.923Z,3.40
2023-01-02T09:11:27.563Z,3.50
2023-01-02T09:13:55.095Z,3.80
2023-01-02T09:16:22.655Z,3.90
2023-01-02T09:18:49.712Z,4.00
2023-01-02T09:21:16.759Z,4.00
2023-01-02T09:23:43.752Z,3.40
2023-01-02T09:26:11.563Z,4.00
2023-01-02T09:28:38.614Z,3.40
2023-01-02T09:31:11.844Z,3.60
2023-01-02T09:33:40.693Z,3.40
2023-01-02T09:36:08.974Z,3.30
2023-01-02T09:38:36.152Z,3.10
2023-01-02T09:41:11.162Z,3.10
2023-01-02T09:43:41.598Z,2.60
2023-01-02T09:46:10.714Z,2.70
2023-01-02T09:48:37.743Z,2.70
2023-01-02T09:51:07.767Z,2.20
2023-01-02T09:53:35.320Z,2.50
2023-01-02T09:56:10.945Z,2.10
2023-01-02T09:58:50.591Z,2.20
2023-01-02T10:01:51.617Z,2.10
2023-01-02T10:04:49.921Z,2.20
2023-01-02T10:07:31.601Z,1.90
2023-01-02T10:10:14.017Z,2.20
2023-01-02T10:13:00.308Z,2.70
2023-01-02T10:15:28.172Z,3.20
2023-01-02T10:17:59.024Z,2.20
2023-01-02T10:20:40.400Z,2.00
2023-01-02T10:23:10.402Z,2.50
2023-01-02T10:25:40.254Z,2.10
2023-01-02T10:28:28.339Z,2.50
2023-01-02T10:31:07.653Z,1.80
2023-01-02T10:34:00.462Z,2.40
2023-01-02T10:36:33.158Z,2.20
2023-01-02T10:39:05.407Z,2.30
2023-01-02T10:41:32.346Z,1.80
2023-01-02T10:44:04.213Z,1.90
2023-01-02T10:46:36.094Z,1.90
2023-01-02T10:49:04.452Z,2.00
2023-01-02T10:51:31.496Z,2.00
2023-01-02T10:54:07.068Z,2.30
2023-01-02T10:56:38.676Z,2.20
2023-01-02T10:59:23.785Z,2.30
2023-01-02T11:01:59.034Z,2.30
2023-01-02T11:04:30.350Z,1.90
2023-01-02T11:07:01.849Z,1.90
2023-01-02T11:09:29.670Z,2.50
2023-01-02T11:11:57.295Z,2.70
2023-01-02T11:14:28.415Z,2.10
2023-01-02T11:17:01.858Z,2.10
2023-01-02T11:21:57.311Z,1.60
2023-01-02T11:24:27.312Z,2.00
2023-01-02T11:26:54.394Z,2.00
2023-01-02T11:29:32.189Z,2.20
2023-01-02T11:33:13.874Z,1.80
2023-01-02T11:35:49.254Z,2.00
2023-01-02T11:38:28.767Z,2.30
2023-01-02T11:41:02.042Z,2.10
2023-01-02T11:43:52.266Z,2.30
2023-01-02T11:46:25.413Z,2.60
2023-01-02T11:48:54.007Z,2.10
2023-01-02T11:51:21.051Z,2.10
2023-01-02T11:53:48.149Z,1.90
2023-01-02T11:56:29.381Z,1.90
2023-01-02T11:59:02.118Z,1.90
2023-01-02T12:01:52.233Z,2.10
2023-01-02T12:04:19.411Z,1.50
2023-01-02T12:07:15.455Z,1.70
2023-01-02T12:10:00.445Z,1.70
2023-01-02T12:12:34.346Z,1.60
2023-01-02T12:15:18.756Z,2.20
2023-01-02T12:17:53.693Z,2.40
2023-01-02T12:20:33.123Z,2.40
2023-01-02T12:23:04.809Z,2.00
2023-01-02T12:25:31.829Z,1.90
2023-01-02T12:28:22.037Z,1.90
2023-01-02T12:30:55.818Z,2.00
2023-01-02T12:33:49.636Z,1.80
2023-01-02T12:36:32.528Z,1.90
2023-01-02T12:39:18.610Z,2.20
2023-01-02T12:42:00.560Z,1.90
2023-01-02T12:44:55.413Z,2.10
2023-01-02T12:47:49.486Z,1.80
2023-01-02T12:50:48.449Z,1.90
2023-01-02T12:53:36.457Z,1.90
2023-01-02T12:56:19.137Z,2.00
2023-01-02T12:59:08.305Z,1.30
2023-01-02T13:01:37.413Z,1.60
2023-01-02T13:04:36.604Z,2.00
2023-01-02T13:07:09.628Z,1.50
2023-01-02T13:09:41.357Z,1.80
2023-01-02T13:12:17.642Z,1.80
2023-01-02T13:14:47.478Z,2.00
2023-01-02T13:17:14.604Z,1.40
2023-01-02T13:19:50.104Z,1.70
2023-01-02T13:22:38.589Z,1.80
2023-01-02T13:25:06.454Z,2.20
2023-01-02T13:27:33.476Z,1.70
2023-01-02T13:30:01.801Z,1.80
2023-01-02T13:32:29.620Z,2.30
2023-01-02T13:34:57.082Z,1.50
2023-01-02T13:37:25.988Z,1.90
2023-01-02T13:40:02.877Z,2.20
2023-01-02T13:42:51.294Z,2.00
2023-01-02T13:45:23.898Z,2.30
2023-01-02T13:47:56.713Z,2.20
2023-01-02T13:50:33.950Z,1.90
2023-01-02T13:53:10.217Z,2.30
2023-01-02T13:55:40.752Z,2.00
2023-01-02T13:58:18.469Z,2.60
2023-01-02T14:00:53.538Z,2.00
2023-01-02T14:03:21.428Z,2.10
2023-01-02T14:06:30.770Z,2.40
2023-01-02T14:09:17.531Z,2.80
2023-01-02T14:11:56.700Z,3.10
2023-01-02T14:14:37.603Z,2.80
2023-01-02T14:17:14.687Z,3.20
2023-01-02T14:19:41.838Z,3.30
2023-01-02T14:22:16.816Z,2.30
2023-01-02T14:24:53.120Z,2.80
2023-01-02T14:27:24.370Z,2.90
2023-01-02T14:29:53.890Z,2.90
2023-01-02T14:32:39.579Z,3.10
2023-01-02T14:35:31.002Z,2.80
2023-01-02T14:38:17.713Z,3.10
2023-01-02T14:40:46.707Z,2.30
2023-01-02T14:43:34.222Z,2.40
2023-01-02T14:46:04.387Z,2.30
2023-01-02T14:48:40.070Z,2.80
2023-01-02T14:51:10.003Z,2.50
2023-01-02T14:53:40.522Z,3.10
2023-01-02T14:56:15.882Z,3.20
2023-01-02T14:58:49.964Z,2.60
2023-01-02T15:01:42.921Z,3.00
2023-01-02T15:04:23.490Z,3.00
2023-01-02T15:07:30.880Z,3.50
2023-01-02T15:10:17.794Z,4.40
2023-01-02T15:13:04.233Z,4.70
2023-01-02T15:15:36.382Z,3.70
2023-01-02T15:18:16.934Z,5.10
2023-01-02T15:20:43.916Z,4.80
2023-01-02T15:23:17.992Z,6.00
2023-01-02T15:25:45.047Z,5.40
2023-01-02T15:28:44.635Z,6.80
2023-01-02T15:31:13.432Z,6.10
2023-01-02T15:33:40.881Z,7.40
2023-01-02T15:36:17.455Z,7.10
2023-01-02T15:38:44.541Z,8.30
2023-01-02T15:41:18.457Z,7.40
2023-01-02T15:44:04.505Z,8.00
2023-01-02T15:46:31.604Z,8.70
2023-01-02T15:48:59.524Z,5.70
2023-01-02T15:51:40.376Z,7.40
2023-01-02T15:54:13.448Z,8.20
2023-01-02T15:56:41.958Z,8.70
2023-01-02T15:59:25.704Z,8.50
2023-01-02T16:04:30.963Z,10.10
2023-01-02T16:06:59.330Z,8.80
2023-01-02T16:09:31.335Z,12.00
2023-01-02T16:12:00.499Z,10.00
2023-01-02T16:14:33.798Z,12.40
2023-01-02T16:17:05.752Z,11.30
2023-01-02T16:19:48.082Z,10.80
2023-01-02T16:22:24.506Z,8.30
2023-01-02T16:25:18.504Z,9.60
2023-01-02T16:28:04.287Z,10.80
2023-01-02T16:30:51.403Z,10.00
2023-01-02T16:33:32.075Z,9.80
2023-01-02T16:36:05.267Z,8.00
2023-01-02T16:38:45.023Z,10.30
2023-01-02T16:41:41.340Z,8.70
2023-01-02T16:44:14.303Z,8.50
2023-01-02T16:46:42.228Z,7.90
2023-01-02T16:49:12.116Z,8.10
2023-01-02T16:51:43.048Z,6.40
2023-01-02T16:54:13.916Z,7.10
2023-01-02T16:56:40.880Z,8.20
2023-01-02T16:59:07.998Z,8.40
2023-01-02T17:01:36.102Z,8.30
2023-01-02T17:04:03.921Z,6.20
2023-01-02T17:06:32.199Z,6.80
2023-01-02T17:08:59.355Z,7.50
2023-01-02T17:11:26.627Z,7.60
2023-01-02T17:13:54.775Z,7.60
2023-01-02T17:16:21.946Z,7.50
2023-01-02T17:18:50.294Z,5.30
2023-01-02T17:21:19.506Z,6.60
2023-01-02T17:23:46.855Z,6.20
2023-01-02T17:26:15.461Z,6.70
2023-01-02T17:28:43.999Z,5.80
2023-01-02T17:31:14.493Z,6.90
2023-01-02T17:33:41.694Z,5.10
2023-01-02T17:36:09.302Z,5.10
2023-01-02T17:38:36.605Z,5.60
2023-01-02T17:41:03.655Z,5.60
2023-01-02T17:43:32.859Z,5.70
2023-01-02T17:46:38.792Z,4.20
2023-01-02T17:48:55.209Z,5.90
2023-01-02T17:51:22.869Z,3.90
2023-01-02T17:53:53.089Z,5.10
2023-01-02T17:56:22.768Z,5.30
2023-01-02T17:58:51.206Z,3.90
2023-01-02T18:01:21.752Z,4.30
2023-01-02T18:03:49.067Z,4.30
2023-01-02T18:06:16.241Z,5.00
2023-01-02T18:08:43.373Z,5.40
2023-01-02T18:11:12.824Z,5.20
2023-01-02T18:13:54.148Z,4.20
2023-01-02T18:16:27.190Z,5.60
2023-01-02T18:18:56.032Z,4.00
2023-01-02T18:21:24.312Z,5.00
2023-01-02T18:23:54.884Z,4.30
2023-01-02T18:26:22.381Z,4.40
2023-01-02T18:28:51.487Z,4.90
2023-01-02T18:31:23.761Z,4.00
2023-01-02T18:33:52.130Z,4.60
2023-01-02T18:36:21.894Z,3.80
2023-01-02T18:38:53.534Z,4.20
2023-01-02T18:41:25.766Z,3.10
2023-01-02T18:43:59.760Z,3.70
2023-01-02T18:47:03.518Z,4.00
2023-01-02T18:49:37.698Z,2.50
2023-01-02T18:52:10.893Z,2.30
2023-01-02T18:54:41.505Z,2.50
2023-01-02T18:57:14.375Z,3.70
2023-01-02T18:59:43.710Z,3.10
2023-01-02T19:02:37.066Z,2.30
2023-01-02T19:05:26.286Z,3.40
2023-01-02T19:08:02.423Z,2.90
2023-01-02T19:10:37.056Z,3.90
2023-01-02T19:13:19.551Z,3.00
2023-01-02T19:16:02.882Z,3.50
2023-01-02T19:21:33.625Z,4.40
2023-01-02T19:24:19.022Z,5.00
2023-01-02T19:26:50.852Z,4.80
2023-01-02T19:29:20.179Z,3.50
2023-01-02T19:31:52.629Z,4.70
2023-01-02T19:34:41.583Z,5.20
2023-01-02T19:37:11.745Z,5.00
2023-01-02T19:39:47.687Z,6.00
2023-01-02T19:42:21.057Z,4.70
2023-01-02T19:44:50.362Z,4.40
2023-01-02T19:47:18.023Z,4.70
2023-01-02T19:49:45.271Z,5.70
2023-01-02T19:52:12.760Z,5.50
2023-01-02T19:54:43.567Z,5.00
2023-01-02T19:57:12.264Z,5.40
2023-01-02T19:59:43.757Z,4.00
2023-01-02T20:02:12.068Z,4.30
2023-01-02T20:04:40.559Z,4.60
2023-01-02T20:07:08.017Z,4.80
2023-01-02T20:09:35.067Z,5.30
2023-01-02T20:12:20.961Z,4.50
2023-01-02T20:14:48.004Z,4.60
2023-01-02T20:17:16.597Z,4.00
2023-01-02T20:19:43.741Z,4.00
2023-01-02T20:22:11.436Z,4.80
2023-01-02T20:24:38.647Z,5.10
2023-01-02T20:27:05.694Z,4.50
2023-01-02T20:29:33.152Z,5.10
2023-01-02T20:32:00.302Z,5.10
2023-01-02T20:34:27.246Z,3.30
2023-01-02T20:36:54.287Z,3.90
2023-01-02T20:39:21.201Z,3.60
2023-01-02T20:41:48.178Z,4.30
2023-01-02T20:44:15.448Z,3.70
2023-01-02T20:46:42.945Z,3.90
2023-01-02T20:49:10.243Z,4.20
2023-01-02T20:51:37.440Z,3.10
2023-01-02T20:54:04.852Z,3.00
2023-01-02T20:56:32.410Z,3.90
2023-01-02T20:58:59.333Z,5.00
2023-01-02T21:01:26.695Z,4.70
2023-01-02T21:03:54.036Z,4.00
2023-01-02T21:06:21.221Z,4.50
2023-01-02T21:08:48.365Z,3.90
2023-01-02T21:11:15.415Z,3.80
2023-01-02T21:13:42.280Z,4.00
2023-01-02T21:16:09.232Z,4.30
2023-01-02T21:18:38.596Z,4.50
2023-01-02T21:21:11.505Z,4.30
2023-01-02T21:23:39.611Z,4.40
2023-01-02T21:26:07.655Z,2.70
2023-01-02T21:28:34.981Z,4.00
2023-01-02T21:31:02.471Z,4.40
2023-01-02T21:33:29.805Z,4.30
2023-01-02T21:35:58.765Z,4.80
2023-01-02T21:38:26.968Z,4.90
2023-01-02T21:40:54.727Z,4.00
2023-01-02T21:43:22.410Z,3.40
2023-01-02T21:45:50.162Z,4.20
2023-01-02T21:48:17.049Z,4.30
2023-01-02T21:50:44.035Z,4.70
2023-01-02T21:53:11.268Z,5.30
2023-01-02T21:55:38.163Z,5.00
2023-01-02T21:58:13.753Z,4.10
2023-01-02T22:00:41.300Z,4.10
2023-01-02T22:03:08.601Z,4.30
2023-01-02T22:05:35.744Z,5.30
2023-01-02T22:08:02.743Z,5.10
2023-01-02T22:10:29.739Z,5.80
2023-01-02T22:12:56.649Z,3.80
2023-01-02T22:15:24.270Z,4.40
2023-01-02T22:17:51.280Z,4.50
2023-01-02T22:20:18.281Z,4.80
2023-01-02T22:22:45.176Z,4.90
2023-01-02T22:25:12.119Z,4.40
2023-01-02T22:27:39.171Z,4.30
2023-01-02T22:30:21.566Z,4.00
2023-01-02T22:32:51.589Z,4.80
2023-01-02T22:35:18.813Z,5.30
2023-01-02T22:37:45.993Z,4.90
2023-01-02T22:40:13.377Z,5.80
2023-01-02T22:43:04.926Z,5.70
2023-01-02T22:45:47.693Z,4.80
2023-01-02T22:48:17.901Z,4.20
2023-01-02T22:50:45.788Z,4.90
2023-01-02T22:53:27.495Z,5.40
2023-01-02T22:55:54.717Z,5.90
2023-01-02T22:58:22.270Z,4.30
2023-01-02T23:00:55.491Z,5.50
2023-01-02T23:03:22.517Z,5.40
2023-01-02T23:05:49.456Z,5.30
2023-01-02T23:08:16.460Z,6.10
2023-01-02T23:10:43.555Z,6.00
2023-01-02T23:13:10.592Z,4.10
2023-01-02T23:15:59.037Z,4.60
2023-01-02T23:18:45.040Z,5.20
2023-01-02T23:21:11.994Z,6.20
2023-01-02T23:23:38.928Z,6.30
2023-01-02T23:26:06.327Z,6.50
2023-01-02T23:29:05.174Z,6.10
2023-01-02T23:31:21.280Z,3.80
2023-01-02T23:33:48.233Z,4.30
2023-01-02T23:36:16.936Z,4.70
2023-01-02T23:38:44.347Z,4.60
2023-01-02T23:41:11.404Z,5.90
2023-01-02T23:43:38.463Z,5.90
2023-01-02T23:46:05.610Z,6.60
2023-01-02T23:48:32.548Z,4.60
2023-01-02T23:51:01.014Z,4.70
2023-01-02T23:53:28.154Z,5.00
2023-01-02T23:55:55.751Z,5.80
2023-01-02T23:58:22.774Z,5.50
